Aurora State Airport Aurora US
ICAO: KUAO
IATA: UAO
Category: Medium
Scheduled Services: No

Elevation: 200 ft
TransAlt. 18000 ft.

Airport Communications:
PORTLAND APP/DEP:126
ASOS:118.525
PORTLAND CLNC DEL:119.95
CTAF/UNICOM:122.7

KUAO Zoom In..

If you have problems with the map follow the link
https://www.worldairports.se/pages/airport.php?
ICAO=KUAO

Runways:

(A) RW 17 length 5004 ft width 100 ft
LOC 111.15 / hdg 169

(B) RW 35 length 5004 ft width 100 ft
LOC 111.15 / hdg 349

Location; KUAO
Day. 25 / Time. 08.53 Zulu
* Altimeter: 29.95
* Temperature: 09° c. 48.2°f.
* Wind from: 030° Speed 03 kn.
Dewpoint: 07° c.
Visibility: 10 Statute Miles.
Clouds: Overcast 6000 ft.

KUAO 250853Z AUTO 03003KT 10SM OVC060 09/07 A2995 RMK AO2 RAB16E39 SLP143 P0001 60001 T00940067 56020


Wind From 030°
Speed 03 kn.

 
 
jpsmedia worldairports.se 2020   terms of use